createdAt,value
2023-03-04T00:00:21.537Z,80.51
2023-03-04T00:02:51.161Z,80.08
2023-03-04T00:05:20.434Z,79.84
2023-03-04T00:07:49.789Z,79.47
2023-03-04T00:10:20.581Z,79.58
2023-03-04T00:12:49.862Z,80.08
2023-03-04T00:15:19.296Z,79.89
2023-03-04T00:17:48.569Z,80.02
2023-03-04T00:20:18.367Z,79.92
2023-03-04T00:22:48.146Z,80.18
2023-03-04T00:25:17.550Z,80.36
2023-03-04T00:27:47.356Z,80.30
2023-03-04T00:30:17.027Z,79.55
2023-03-04T00:32:46.555Z,79.35
2023-03-04T00:35:15.859Z,79.08
2023-03-04T00:37:45.276Z,78.51
2023-03-04T00:40:14.962Z,78.29
2023-03-04T00:42:44.537Z,77.23
2023-03-04T00:45:14.005Z,77.71
2023-03-04T00:47:43.756Z,78.14
2023-03-04T00:50:13.460Z,78.45
2023-03-04T00:52:42.847Z,78.47
2023-03-04T00:55:12.069Z,78.01
2023-03-04T00:57:41.358Z,78.24
2023-03-04T01:00:11.601Z,78.93
2023-03-04T01:02:40.977Z,78.39
2023-03-04T01:05:11.424Z,78.89
2023-03-04T01:07:40.672Z,78.67
2023-03-04T01:10:11.441Z,78.58
2023-03-04T01:12:41.751Z,78.02
2023-03-04T01:15:13.118Z,78.23
2023-03-04T01:17:43.096Z,78.11
2023-03-04T01:20:13.378Z,78.51
2023-03-04T01:22:43.494Z,78.13
2023-03-04T01:25:12.751Z,78.37
2023-03-04T01:27:42.197Z,79.08
2023-03-04T01:30:12.842Z,79.17
2023-03-04T01:32:42.755Z,79.12
2023-03-04T01:35:12.074Z,79.71
2023-03-04T01:37:41.634Z,79.43
2023-03-04T01:40:12.121Z,79.07
2023-03-04T01:42:41.849Z,79.41
2023-03-04T01:45:14.293Z,79.55
2023-03-04T01:47:44.603Z,79.28
2023-03-04T01:50:19.724Z,79.24
2023-03-04T01:52:49.307Z,79.99
2023-03-04T01:55:21.167Z,79.54
2023-03-04T01:57:52.493Z,79.20
2023-03-04T02:00:33.053Z,79.17
2023-03-04T02:03:12.605Z,79.21
2023-03-04T02:05:44.340Z,79.08
2023-03-04T02:08:15.233Z,78.10
2023-03-04T02:10:45.152Z,78.30
2023-03-04T02:13:15.458Z,78.53
2023-03-04T02:15:46.394Z,78.51
2023-03-04T02:18:18.812Z,78.72
2023-03-04T02:20:58.188Z,78.77
2023-03-04T02:23:30.778Z,78.07
2023-03-04T02:26:15.255Z,78.14
2023-03-04T02:28:45.968Z,78.51
2023-03-04T02:31:39.377Z,78.65
2023-03-04T02:34:17.674Z,79.22
2023-03-04T02:36:48.075Z,79.31
2023-03-04T02:39:42.587Z,79.31
2023-03-04T02:42:12.971Z,78.91
2023-03-04T02:44:47.017Z,78.92
2023-03-04T02:47:17.877Z,79.06
2023-03-04T02:49:48.044Z,79.37
2023-03-04T02:52:19.980Z,78.41
2023-03-04T02:54:50.268Z,77.61
2023-03-04T02:57:19.746Z,78.70
2023-03-04T02:59:50.924Z,78.69
2023-03-04T03:02:22.166Z,78.34
2023-03-04T03:04:52.549Z,78.34
2023-03-04T03:07:22.156Z,78.25
2023-03-04T03:09:52.163Z,78.49
2023-03-04T03:12:21.795Z,78.53
2023-03-04T03:14:51.378Z,78.90
2023-03-04T03:17:21.549Z,79.41
2023-03-04T03:19:50.843Z,79.03
2023-03-04T03:22:20.268Z,78.96
2023-03-04T03:24:49.872Z,78.92
2023-03-04T03:27:19.185Z,78.30
2023-03-04T03:29:48.706Z,78.05
2023-03-04T03:32:18.247Z,78.63
2023-03-04T03:34:47.688Z,78.63
2023-03-04T03:37:17.036Z,78.42
2023-03-04T03:39:46.586Z,78.86
2023-03-04T03:42:16.113Z,78.75
2023-03-04T03:44:45.522Z,78.34
2023-03-04T03:47:14.869Z,78.70
2023-03-04T03:49:44.206Z,78.85
2023-03-04T03:52:13.848Z,78.80
2023-03-04T03:54:43.503Z,78.73
2023-03-04T03:57:12.939Z,79.30
2023-03-04T03:59:42.185Z,79.04
2023-03-04T04:02:11.526Z,79.47
2023-03-04T04:04:41.115Z,79.24
2023-03-04T04:07:10.334Z,79.73
2023-03-04T04:09:39.878Z,79.13
2023-03-04T04:12:09.484Z,78.87
2023-03-04T04:14:38.730Z,79.03
2023-03-04T04:17:07.930Z,79.13
2023-03-04T04:19:37.357Z,79.30
2023-03-04T04:22:06.580Z,79.32
2023-03-04T04:24:36.797Z,79.39
2023-03-04T04:27:06.169Z,79.45
2023-03-04T04:29:35.668Z,79.85
2023-03-04T04:32:05.775Z,79.35
2023-03-04T04:34:35.026Z,78.71
2023-03-04T04:37:04.297Z,79.14
2023-03-04T04:39:33.829Z,79.51
2023-03-04T04:42:03.131Z,79.83
2023-03-04T04:44:32.634Z,79.75
2023-03-04T04:47:01.880Z,79.94
2023-03-04T04:49:31.383Z,80.28
2023-03-04T04:52:00.597Z,79.84
2023-03-04T04:54:30.023Z,79.56
2023-03-04T04:56:59.327Z,80.08
2023-03-04T04:59:28.770Z,79.73
2023-03-04T05:01:57.990Z,79.80
2023-03-04T05:04:27.668Z,80.06
2023-03-04T05:06:56.970Z,80.24
2023-03-04T05:09:26.365Z,80.40
2023-03-04T05:11:55.872Z,80.36
2023-03-04T05:14:25.267Z,80.86
2023-03-04T05:16:54.521Z,80.56
2023-03-04T05:19:23.980Z,80.40
2023-03-04T05:21:53.467Z,80.50
2023-03-04T05:24:23.085Z,80.58
2023-03-04T05:26:52.462Z,80.77
2023-03-04T05:29:21.817Z,80.24
2023-03-04T05:31:51.336Z,81.10
2023-03-04T05:34:20.579Z,81.82
2023-03-04T05:36:49.945Z,82.00
2023-03-04T05:39:19.496Z,82.30
2023-03-04T05:41:48.701Z,82.57
2023-03-04T05:44:18.061Z,82.55
2023-03-04T05:46:47.815Z,81.45
2023-03-04T05:49:17.100Z,81.85
2023-03-04T05:51:46.416Z,81.26
2023-03-04T05:54:16.141Z,81.23
2023-03-04T05:56:45.549Z,81.74
2023-03-04T05:59:16.386Z,81.94
2023-03-04T06:01:45.745Z,82.21
2023-03-04T06:04:15.028Z,82.44
2023-03-04T06:06:46.259Z,82.41
2023-03-04T06:09:15.981Z,82.73
2023-03-04T06:11:45.579Z,83.49
2023-03-04T06:14:14.855Z,83.87
2023-03-04T06:16:44.141Z,83.31
2023-03-04T06:19:13.378Z,83.33
2023-03-04T06:21:42.917Z,83.35
2023-03-04T06:24:12.194Z,83.56
2023-03-04T06:26:41.758Z,82.38
2023-03-04T06:29:11.431Z,82.38
2023-03-04T06:31:42.059Z,82.53
2023-03-04T06:34:11.524Z,81.93
2023-03-04T06:36:40.744Z,81.76
2023-03-04T06:39:10.376Z,81.87
2023-03-04T06:41:40.085Z,82.23
2023-03-04T06:44:09.526Z,82.49
2023-03-04T06:46:39.006Z,82.77
2023-03-04T06:49:08.336Z,83.39
2023-03-04T06:51:37.922Z,83.11
2023-03-04T06:54:07.269Z,83.03
2023-03-04T06:56:36.832Z,82.52
2023-03-04T06:59:06.471Z,82.67
2023-03-04T07:01:36.597Z,82.52
2023-03-04T07:04:06.077Z,82.82
2023-03-04T07:06:35.632Z,83.98
2023-03-04T07:09:04.956Z,84.01
2023-03-04T07:11:34.467Z,84.42
2023-03-04T07:14:03.701Z,85.12
2023-03-04T07:16:33.566Z,85.20
2023-03-04T07:19:03.145Z,86.22
2023-03-04T07:21:32.694Z,85.77
2023-03-04T07:24:02.160Z,86.08
2023-03-04T07:26:31.732Z,86.24
2023-03-04T07:29:02.471Z,86.42
2023-03-04T07:31:34.201Z,86.57
2023-03-04T07:34:06.593Z,86.46
2023-03-04T07:36:36.444Z,86.36
2023-03-04T07:39:06.233Z,86.22
2023-03-04T07:41:37.702Z,85.84
2023-03-04T07:44:08.107Z,85.58
2023-03-04T07:46:37.906Z,85.35
2023-03-04T07:49:08.172Z,85.48
2023-03-04T07:51:37.666Z,85.02
2023-03-04T07:54:07.821Z,85.05
2023-03-04T07:56:37.351Z,84.99
2023-03-04T07:59:06.641Z,84.59
2023-03-04T08:01:38.107Z,84.38
2023-03-04T08:04:08.338Z,83.29
2023-03-04T08:06:37.890Z,82.36
2023-03-04T08:09:08.464Z,82.57
2023-03-04T08:11:38.944Z,82.31
2023-03-04T08:14:09.346Z,81.46
2023-03-04T08:16:39.733Z,80.99
2023-03-04T08:19:09.436Z,81.11
2023-03-04T08:21:39.183Z,81.14
2023-03-04T08:24:09.141Z,80.86
2023-03-04T08:26:43.065Z,81.99
2023-03-04T08:29:21.213Z,81.73
2023-03-04T08:31:51.421Z,82.35
2023-03-04T08:34:22.040Z,82.40
2023-03-04T08:36:51.645Z,82.38
2023-03-04T08:39:20.985Z,81.68
2023-03-04T08:41:50.779Z,81.24
2023-03-04T08:44:19.972Z,81.28
2023-03-04T08:46:49.425Z,81.72
2023-03-04T08:49:18.791Z,81.17
2023-03-04T08:51:48.084Z,80.89
2023-03-04T08:54:17.388Z,79.99
2023-03-04T08:56:47.276Z,79.56
2023-03-04T08:59:16.501Z,78.82
2023-03-04T09:01:46.110Z,78.76
2023-03-04T09:04:15.312Z,78.07
2023-03-04T09:06:44.920Z,77.49
2023-03-04T09:09:14.201Z,78.24
2023-03-04T09:11:43.427Z,78.76
2023-03-04T09:14:12.712Z,78.57
2023-03-04T09:16:42.220Z,78.66
2023-03-04T09:19:11.494Z,78.24
2023-03-04T09:21:40.786Z,78.02
2023-03-04T09:24:10.315Z,78.06
2023-03-04T09:26:39.528Z,78.13
2023-03-04T09:29:09.052Z,78.94
2023-03-04T09:31:38.600Z,80.09
2023-03-04T09:34:08.099Z,79.76
2023-03-04T09:36:38.203Z,79.15
2023-03-04T09:39:07.580Z,78.66
2023-03-04T09:41:44.929Z,78.66
2023-03-04T09:44:29.038Z,77.97
2023-03-04T09:47:01.692Z,77.72
2023-03-04T09:49:32.367Z,78.70
2023-03-04T09:52:07.979Z,79.21
2023-03-04T09:55:07.289Z,79.78
2023-03-04T09:58:13.648Z,79.42
2023-03-04T10:00:55.079Z,79.41
2023-03-04T10:03:29.454Z,78.98
2023-03-04T10:06:07.418Z,79.91
2023-03-04T10:08:48.723Z,80.52
2023-03-04T10:11:27.432Z,79.78
2023-03-04T10:14:19.669Z,79.33
2023-03-04T10:16:54.105Z,80.12
2023-03-04T10:19:35.501Z,79.85
2023-03-04T10:22:13.561Z,80.20
2023-03-04T10:24:42.777Z,78.81
2023-03-04T10:27:14.225Z,77.89
2023-03-04T10:29:43.708Z,76.46
2023-03-04T10:32:19.314Z,74.87
2023-03-04T10:34:49.958Z,75.21
2023-03-04T10:37:19.279Z,72.88
2023-03-04T10:39:49.388Z,71.13
2023-03-04T10:42:21.943Z,72.99
2023-03-04T10:44:57.884Z,75.91
2023-03-04T10:47:29.089Z,77.23
2023-03-04T10:50:00.836Z,80.02
2023-03-04T10:52:40.804Z,82.52
2023-03-04T10:55:19.506Z,85.04
2023-03-04T10:57:57.971Z,85.86
2023-03-04T11:00:33.937Z,85.85
2023-03-04T11:03:24.303Z,86.32
2023-03-04T11:05:55.923Z,84.97
2023-03-04T11:08:25.318Z,83.47
2023-03-04T11:10:54.912Z,81.94
2023-03-04T11:13:28.439Z,81.56
2023-03-04T11:16:04.008Z,82.30
2023-03-04T11:18:41.876Z,82.79
2023-03-04T11:21:17.444Z,82.54
2023-03-04T11:24:13.325Z,77.58
2023-03-04T11:26:41.863Z,72.65
2023-03-04T11:29:11.992Z,75.21
2023-03-04T11:31:50.155Z,78.00
2023-03-04T11:34:41.828Z,78.59
2023-03-04T11:37:28.911Z,79.92
2023-03-04T11:40:16.194Z,81.31
2023-03-04T11:42:57.928Z,81.54
2023-03-04T11:45:34.030Z,81.63
2023-03-04T11:48:14.362Z,79.96
2023-03-04T11:50:47.400Z,78.53
2023-03-04T11:53:32.259Z,75.14
2023-03-04T11:56:08.869Z,73.28
2023-03-04T11:58:52.938Z,74.08
2023-03-04T12:01:31.205Z,74.75
2023-03-04T12:04:09.923Z,75.73
2023-03-04T12:06:54.340Z,76.65
2023-03-04T12:09:32.545Z,77.38
2023-03-04T12:12:17.265Z,76.53
2023-03-04T12:14:59.212Z,77.98
2023-03-04T12:17:56.986Z,78.35
2023-03-04T12:20:32.150Z,76.98
2023-03-04T12:23:10.106Z,78.21
2023-03-04T12:25:54.788Z,78.54
2023-03-04T12:28:45.877Z,78.51
2023-03-04T12:31:30.590Z,78.85
2023-03-04T12:34:19.628Z,82.14
2023-03-04T12:36:54.636Z,85.11
2023-03-04T12:39:35.253Z,85.97
2023-03-04T12:42:31.272Z,86.76
2023-03-04T12:45:07.521Z,87.12
2023-03-04T12:47:55.266Z,85.34
2023-03-04T12:50:30.635Z,84.20
2023-03-04T12:53:15.142Z,83.01
2023-03-04T12:55:46.406Z,81.81
2023-03-04T12:58:21.806Z,81.99
2023-03-04T13:01:02.467Z,80.36
2023-03-04T13:03:43.354Z,80.59
2023-03-04T13:06:30.532Z,81.21
2023-03-04T13:09:06.102Z,84.30
2023-03-04T13:11:41.598Z,83.14
2023-03-04T13:14:18.683Z,83.17
2023-03-04T13:16:54.110Z,81.36
2023-03-04T13:19:49.056Z,81.63
2023-03-04T13:22:36.449Z,80.95
2023-03-04T13:25:43.921Z,80.87
2023-03-04T13:28:19.270Z,79.68
2023-03-04T13:31:01.231Z,80.02
2023-03-04T13:33:39.429Z,79.28
2023-03-04T13:36:29.826Z,79.34
2023-03-04T13:39:05.296Z,80.44
2023-03-04T13:41:51.673Z,80.84
2023-03-04T13:44:48.401Z,81.38
2023-03-04T13:47:20.619Z,81.55
2023-03-04T13:49:50.020Z,82.59
2023-03-04T13:52:39.138Z,82.34
2023-03-04T13:55:43.120Z,82.87
2023-03-04T13:58:24.596Z,83.02
2023-03-04T14:00:55.576Z,82.06
2023-03-04T14:03:30.042Z,81.92
2023-03-04T14:06:14.148Z,82.46
2023-03-04T14:08:43.806Z,82.44
2023-03-04T14:11:22.305Z,82.19
2023-03-04T14:13:51.695Z,82.33
2023-03-04T14:16:22.477Z,82.01
2023-03-04T14:19:06.651Z,82.01
2023-03-04T14:21:37.001Z,79.45
2023-03-04T14:24:14.408Z,79.13
2023-03-04T14:26:43.630Z,78.15
2023-03-04T14:29:27.667Z,77.38
2023-03-04T14:31:57.417Z,77.44
2023-03-04T14:34:31.930Z,76.92
2023-03-04T14:37:03.165Z,77.22
2023-03-04T14:39:35.910Z,76.11
2023-03-04T14:42:08.334Z,76.01
2023-03-04T14:44:40.976Z,74.82
2023-03-04T14:47:13.637Z,73.04
2023-03-04T14:49:43.416Z,72.64
2023-03-04T14:52:40.388Z,71.73
2023-03-04T14:55:22.406Z,71.68
2023-03-04T14:57:55.559Z,71.13
2023-03-04T15:00:31.332Z,71.28
2023-03-04T15:03:06.514Z,71.79
2023-03-04T15:05:36.931Z,71.99
2023-03-04T15:08:09.225Z,72.56
2023-03-04T15:10:39.664Z,73.22
2023-03-04T15:13:10.112Z,72.72
2023-03-04T15:15:44.890Z,72.98
2023-03-04T15:18:24.377Z,72.83
2023-03-04T15:20:59.635Z,73.04
2023-03-04T15:23:31.527Z,72.04
2023-03-04T15:26:04.142Z,72.33
2023-03-04T15:28:35.868Z,72.89
2023-03-04T15:31:07.501Z,72.99
2023-03-04T15:33:38.281Z,73.32
2023-03-04T15:36:08.508Z,74.04
2023-03-04T15:38:37.739Z,73.89
2023-03-04T15:41:09.450Z,73.65
2023-03-04T15:43:38.914Z,74.20
2023-03-04T15:46:10.153Z,74.58
2023-03-04T15:48:39.457Z,77.10
2023-03-04T15:51:14.529Z,78.48
2023-03-04T15:53:48.284Z,78.86
2023-03-04T15:56:23.591Z,79.78
2023-03-04T15:58:58.833Z,80.33
2023-03-04T16:01:28.580Z,79.81
2023-03-04T16:03:58.129Z,78.90
2023-03-04T16:06:30.176Z,78.60
2023-03-04T16:09:00.569Z,78.81
2023-03-04T16:11:31.570Z,78.91
2023-03-04T16:14:01.140Z,77.82
2023-03-04T16:16:30.359Z,78.00
2023-03-04T16:19:00.117Z,78.60
2023-03-04T16:21:29.402Z,80.26
2023-03-04T16:23:59.027Z,81.01
2023-03-04T16:26:29.095Z,81.76
2023-03-04T16:28:58.789Z,81.96
2023-03-04T16:31:28.065Z,80.90
2023-03-04T16:33:57.739Z,80.50
2023-03-04T16:36:28.150Z,80.06
2023-03-04T16:38:58.613Z,79.97
2023-03-04T16:41:30.676Z,79.17
2023-03-04T16:44:01.721Z,79.26
2023-03-04T16:46:31.153Z,79.66
2023-03-04T16:49:00.496Z,79.57
2023-03-04T16:51:30.764Z,80.34
2023-03-04T16:54:00.413Z,80.63
2023-03-04T16:56:30.950Z,80.38
2023-03-04T16:59:00.537Z,80.68
2023-03-04T17:01:30.598Z,79.60
2023-03-04T17:03:59.912Z,80.32
2023-03-04T17:06:29.292Z,80.77
2023-03-04T17:08:58.875Z,80.20
2023-03-04T17:11:28.404Z,80.27
2023-03-04T17:13:57.725Z,80.20
2023-03-04T17:16:27.255Z,80.40
2023-03-04T17:18:57.626Z,79.71
2023-03-04T17:21:28.020Z,79.71
2023-03-04T17:23:57.243Z,79.90
2023-03-04T17:26:26.532Z,80.13
2023-03-04T17:28:55.740Z,80.20
2023-03-04T17:31:25.236Z,80.38
2023-03-04T17:33:54.695Z,79.90
2023-03-04T17:36:24.109Z,79.65
2023-03-04T17:38:53.471Z,79.57
2023-03-04T17:41:25.076Z,79.43
2023-03-04T17:43:56.935Z,79.30
2023-03-04T17:46:28.044Z,79.66
2023-03-04T17:48:59.230Z,79.72
2023-03-04T17:51:34.735Z,80.42
2023-03-04T17:54:05.653Z,79.88
2023-03-04T17:56:36.724Z,80.43
2023-03-04T17:59:08.279Z,80.64
2023-03-04T18:01:37.884Z,80.95
2023-03-04T18:04:07.647Z,81.22
2023-03-04T18:06:37.370Z,81.24
2023-03-04T18:09:07.706Z,81.10
2023-03-04T18:11:38.943Z,80.16
2023-03-04T18:14:08.197Z,80.47
2023-03-04T18:16:37.457Z,80.61
2023-03-04T18:19:06.917Z,80.19
2023-03-04T18:21:36.520Z,80.74
2023-03-04T18:24:06.955Z,80.86
2023-03-04T18:26:36.349Z,81.21
2023-03-04T18:29:05.984Z,81.14
2023-03-04T18:31:37.206Z,81.78
2023-03-04T18:34:06.720Z,81.95
2023-03-04T18:36:36.247Z,82.65
2023-03-04T18:39:07.671Z,82.61
2023-03-04T18:41:37.195Z,83.23
2023-03-04T18:44:08.460Z,82.53
2023-03-04T18:46:49.258Z,82.77
2023-03-04T18:49:20.536Z,82.68
2023-03-04T18:51:49.896Z,82.43
2023-03-04T18:54:19.350Z,82.80
2023-03-04T18:56:51.787Z,83.19
2023-03-04T18:59:26.894Z,83.52
2023-03-04T19:01:56.467Z,83.82
2023-03-04T19:04:28.069Z,84.17
2023-03-04T19:06:58.921Z,83.97
2023-03-04T19:09:28.814Z,83.92
2023-03-04T19:11:58.194Z,84.05
2023-03-04T19:14:27.792Z,83.69
2023-03-04T19:16:57.243Z,83.93
2023-03-04T19:19:26.764Z,84.15
2023-03-04T19:21:55.990Z,84.66
2023-03-04T19:24:25.438Z,84.46
2023-03-04T19:26:54.669Z,84.00
2023-03-04T19:29:24.240Z,83.62
2023-03-04T19:31:53.509Z,83.42
2023-03-04T19:34:24.585Z,84.39
2023-03-04T19:36:53.786Z,83.58
2023-03-04T19:39:23.252Z,82.45
2023-03-04T19:41:55.153Z,82.40
2023-03-04T19:44:24.670Z,82.31
2023-03-04T19:46:54.082Z,81.52
2023-03-04T19:49:23.664Z,80.00
2023-03-04T19:51:53.045Z,78.77
2023-03-04T19:54:22.412Z,79.57
2023-03-04T19:56:51.710Z,79.78
2023-03-04T19:59:21.657Z,80.48
2023-03-04T20:01:51.058Z,80.12
2023-03-04T20:04:21.575Z,79.39
2023-03-04T20:06:51.899Z,79.70
2023-03-04T20:09:21.719Z,79.23
2023-03-04T20:11:58.207Z,79.63
2023-03-04T20:14:22.391Z,79.90
2023-03-04T20:16:51.724Z,79.72
2023-03-04T20:19:21.308Z,79.84
2023-03-04T20:21:50.672Z,79.94
2023-03-04T20:24:21.947Z,79.85
2023-03-04T20:26:51.431Z,79.92
2023-03-04T20:29:20.860Z,80.29
2023-03-04T20:31:50.211Z,80.46
2023-03-04T20:34:19.774Z,80.41
2023-03-04T20:36:49.034Z,80.93
2023-03-04T20:39:28.831Z,80.43
2023-03-04T20:41:49.626Z,80.59
2023-03-04T20:44:18.926Z,81.59
2023-03-04T20:46:48.640Z,82.09
2023-03-04T20:49:24.234Z,82.11
2023-03-04T20:51:54.763Z,81.83
2023-03-04T20:54:24.332Z,82.25
2023-03-04T20:56:53.744Z,81.43
2023-03-04T20:59:23.015Z,81.83
2023-03-04T21:01:52.506Z,82.48
2023-03-04T21:04:23.289Z,82.21
2023-03-04T21:06:53.634Z,82.51
2023-03-04T21:09:24.132Z,82.89
2023-03-04T21:11:53.523Z,82.85
2023-03-04T21:14:25.995Z,82.88
2023-03-04T21:16:55.543Z,83.22
2023-03-04T21:19:27.566Z,83.89
2023-03-04T21:21:57.913Z,83.42
2023-03-04T21:24:29.943Z,83.31
2023-03-04T21:26:59.594Z,83.89
2023-03-04T21:29:29.748Z,83.70
2023-03-04T21:32:22.465Z,83.88
2023-03-04T21:34:44.291Z,84.57
2023-03-04T21:37:13.633Z,84.59
2023-03-04T21:42:12.641Z,85.13
2023-03-04T21:44:50.899Z,85.24
2023-03-04T21:47:13.320Z,85.67
2023-03-04T21:49:42.595Z,86.06
2023-03-04T21:52:12.999Z,86.56
2023-03-04T21:54:42.416Z,86.69
2023-03-04T21:57:11.992Z,87.26
2023-03-04T21:59:53.291Z,87.78
2023-03-04T22:02:23.803Z,87.88
2023-03-04T22:04:54.007Z,88.25
2023-03-04T22:07:24.295Z,88.58
2023-03-04T22:09:56.405Z,88.67
2023-03-04T22:12:26.112Z,88.52
2023-03-04T22:14:56.531Z,88.68
2023-03-04T22:17:31.045Z,88.70
2023-03-04T22:20:05.838Z,88.89
2023-03-04T22:22:35.394Z,88.81
2023-03-04T22:25:33.065Z,88.25
2023-03-04T22:28:10.360Z,87.65
2023-03-04T22:30:40.344Z,88.17
2023-03-04T22:33:09.640Z,87.99
2023-03-04T22:35:43.749Z,87.48
2023-03-04T22:38:13.260Z,87.49
2023-03-04T22:40:43.008Z,87.16
2023-03-04T22:43:12.534Z,86.91
2023-03-04T22:45:42.583Z,87.43
2023-03-04T22:48:16.152Z,87.83
2023-03-04T22:50:45.609Z,88.07
2023-03-04T22:53:14.817Z,88.50
2023-03-04T22:55:44.131Z,88.39
2023-03-04T22:58:13.380Z,88.14
2023-03-04T23:00:43.701Z,88.34
2023-03-04T23:03:12.926Z,88.63
2023-03-04T23:05:42.319Z,88.40
2023-03-04T23:08:11.732Z,87.79
2023-03-04T23:10:42.853Z,87.96
2023-03-04T23:13:12.164Z,87.51
2023-03-04T23:15:41.931Z,87.21
2023-03-04T23:18:11.263Z,87.71
2023-03-04T23:20:42.419Z,88.26
2023-03-04T23:23:12.457Z,87.85
2023-03-04T23:25:41.697Z,88.87
2023-03-04T23:28:10.952Z,89.25
2023-03-04T23:30:40.215Z,89.23
2023-03-04T23:33:10.001Z,89.21
2023-03-04T23:35:39.572Z,88.77
2023-03-04T23:38:09.441Z,88.55
2023-03-04T23:40:38.684Z,88.33
2023-03-04T23:43:08.314Z,88.10
2023-03-04T23:45:38.964Z,87.96
2023-03-04T23:48:08.500Z,87.76
2023-03-04T23:50:38.804Z,87.60
2023-03-04T23:53:08.060Z,87.13
2023-03-04T23:55:37.380Z,86.89
2023-03-04T23:58:06.749Z,86.84
